Eastern Asia — 3FQP2 — position and weather

sailwx.info

Track history (hours):
 
Tides and Currents Weather Stations Pressure Air Temp Water Temp Dewpoint Dewpoint Depression Visibility Wind Speed Wind Dir Waves Ship Positions

Eastern Asia

Last reported at 2017-Feb-21 06:25 UTC. Time now 2017-Feb-27 22:35 UTC.
Position N 33°07' E 132°06'.

Length 175 m; draft 6.5 m.

Type: Cargo ship. MMSI: 355530000.

Date/timePositionNaut miles runAvg speedWind from/ knotsBaromVisibWave heightAir tempDewpointWater temp
2017-Feb-21 06:25N 33°07' E 132°06'3110.5
2017-Feb-21 03:29N 33°37' E 132°15'1313.6
2017-Feb-21 02:33N 33°46' E 132°26'1414.0
2017-Feb-21 01:32N 33°55' E 132°39'1010.4
2017-Feb-21 00:33N 34°06' E 132°39'  
2017-Feb-15 04:31N 34°13' E 132°37'1 0.1
2017-Feb-14 08:15N 34°12' E 132°37'0 0.0
2017-Feb-14 07:06N 34°12' E 132°37'0 0.0
2017-Feb-13 05:06N 34°12' E 132°37'1 1.0
2017-Feb-13 04:33N 34°12' E 132°37'9 8.4
2017-Feb-13 03:31N 34°04' E 132°40'7 7.7
2017-Feb-13 02:33N 33°56' E 132°41'1212.2
2017-Feb-13 01:33N 33°47' E 132°31'1212.5
2017-Feb-13 00:33N 33°39' E 132°19'2611.3
2017-Feb-12 22:15N 33°19' E 131°60'1112.5
2017-Feb-12 21:22N 33°11' E 132°08'  
Track history (hours):
 
Tides and Currents Weather Stations Pressure Air Temp Water Temp Dewpoint Dewpoint Depression Visibility Wind Speed Wind Dir Waves Ship Positions

Eastern Asia

Last reported at 2017-Feb-21 06:25 UTC. Time now 2017-Feb-27 22:35 UTC.
Position N 33°07' E 132°06'.

Length 175 m; draft 6.5 m.

Type: Cargo ship. MMSI: 355530000.

Date/timePositionNaut miles runAvg speedWind from/ knotsBaromVisibWave heightAir tempDewpointWater temp
2017-Feb-21 06:25N 33°07' E 132°06'3110.5
2017-Feb-21 03:29N 33°37' E 132°15'1313.6
2017-Feb-21 02:33N 33°46' E 132°26'1414.0
2017-Feb-21 01:32N 33°55' E 132°39'1010.4
2017-Feb-21 00:33N 34°06' E 132°39'  
2017-Feb-15 04:31N 34°13' E 132°37'1 0.1
2017-Feb-14 08:15N 34°12' E 132°37'0 0.0
2017-Feb-14 07:06N 34°12' E 132°37'0 0.0
2017-Feb-13 05:06N 34°12' E 132°37'1 1.0
2017-Feb-13 04:33N 34°12' E 132°37'9 8.4
2017-Feb-13 03:31N 34°04' E 132°40'7 7.7
2017-Feb-13 02:33N 33°56' E 132°41'1212.2
2017-Feb-13 01:33N 33°47' E 132°31'1212.5
2017-Feb-13 00:33N 33°39' E 132°19'2611.3
2017-Feb-12 22:15N 33°19' E 131°60'1112.5
2017-Feb-12 21:22N 33°11' E 132°08'  

Dump ship's entire track history